Archival Weather

NSFA McMurdo Sound

NSFA McMurdo Sound, Antarctica (NZCM)

Report from: Friday, September 23, 2022 8:52 AM UTC
Current time: Sunday, December 4, 2022 12:11 PM UTC

Current weather
Weather history
Weather forecast

Present weatherHaze
Temperature-20.4°C (-4.7°F)
Wind chill-33.0°C (-27.4°F)
Dew point-24.5°C (-12.1°F)
Winds 16 kts (8.2 m/s, 18.4 mph) Vrb
Wind gusts 25 kts (12.9 m/s, 28.8 mph)
Winds variableWinds variable from East (100°) to South (170°)
Peak wind 29 kts (14.9 m/s, 33.4 mph) East-Southeast (120°) at 03:11
Visibility1.2 mi. (1.9 km)
Clouds Ceiling: Overcast 1,500 ft. (457 m)
Altimeter28.66 in.Hg (971 mB)
Precip. events Snow ended 8:18 AM
Snow began 8:25 AM
Snow ended 8:38 AM
Snow began 8:42 AM
Snow ended 8:52 AM
Relative humidity70 %
Density altitude-3,009 ft. (-917 m)
Sea-level pressure107.1 kPa (1071 mB, 31.63 in.Hg)
Remarks Fully automated report
System requires maintenance
Special weather observation
Automated weather observing station with precipitation discriminator
Flight conditions Instrument Meteorological Conditions
Raw dataSPECI NZCM 230852Z AUTO 12016G25KT 100V170 1900 HZ OVC015 M20/M24 A2866 RMK AO2 PK WND 12029/0811 SNE0818B0825E0838B0842E0852 SLP711 T12041245 $
An error has occurred. This application may no longer respond until reloaded. Reload 🗙